sensor_id;sensor_type;location;lat;lon;timestamp;pressure;altitude;pressure_sealevel;temperature;humidity
61898;BME280;47850;50.274;18.908;2023-05-03T00:02:25;98719.57;;;10.32;87.25
61898;BME280;47850;50.274;18.908;2023-05-03T00:04:53;98721.59;;;10.29;87.20
61898;BME280;47850;50.274;18.908;2023-05-03T00:07:21;98717.55;;;10.27;87.30
61898;BME280;47850;50.274;18.908;2023-05-03T00:09:49;98718.78;;;10.25;87.16
61898;BME280;47850;50.274;18.908;2023-05-03T00:12:16;98717.96;;;10.22;86.97
61898;BME280;47850;50.274;18.908;2023-05-03T00:14:44;98718.10;;;10.21;86.76
61898;BME280;47850;50.274;18.908;2023-05-03T00:17:12;98717.59;;;10.19;86.60
61898;BME280;47850;50.274;18.908;2023-05-03T00:19:40;98716.55;;;10.17;86.80
61898;BME280;47850;50.274;18.908;2023-05-03T00:22:09;98714.98;;;10.15;86.91
61898;BME280;47850;50.274;18.908;2023-05-03T00:24:36;98713.61;;;10.16;87.04
61898;BME280;47850;50.274;18.908;2023-05-03T00:27:04;98712.54;;;10.16;87.00
61898;BME280;47850;50.274;18.908;2023-05-03T00:29:33;98710.85;;;10.15;87.20
61898;BME280;47850;50.274;18.908;2023-05-03T00:32:00;98710.27;;;10.15;87.33
61898;BME280;47850;50.274;18.908;2023-05-03T00:34:28;98710.45;;;10.14;87.42
61898;BME280;47850;50.274;18.908;2023-05-03T00:36:56;98709.46;;;10.11;87.40
61898;BME280;47850;50.274;18.908;2023-05-03T00:39:24;98710.69;;;10.10;87.36
61898;BME280;47850;50.274;18.908;2023-05-03T00:41:55;98712.89;;;10.09;87.36
61898;BME280;47850;50.274;18.908;2023-05-03T00:44:22;98712.67;;;10.09;87.64
61898;BME280;47850;50.274;18.908;2023-05-03T00:46:50;98713.96;;;10.10;87.93
61898;BME280;47850;50.274;18.908;2023-05-03T00:49:18;98710.91;;;10.10;88.39
61898;BME280;47850;50.274;18.908;2023-05-03T00:51:46;98709.34;;;10.09;88.34
61898;BME280;47850;50.274;18.908;2023-05-03T00:54:14;98712.05;;;10.07;87.99
61898;BME280;47850;50.274;18.908;2023-05-03T00:56:42;98713.20;;;10.04;88.11
61898;BME280;47850;50.274;18.908;2023-05-03T00:59:11;98713.27;;;10.02;88.42
61898;BME280;47850;50.274;18.908;2023-05-03T01:01:39;98714.95;;;10.02;88.64
61898;BME280;47850;50.274;18.908;2023-05-03T01:04:06;98715.84;;;10.03;88.72
61898;BME280;47850;50.274;18.908;2023-05-03T01:14:23;98718.62;;;10.02;89.16
61898;BME280;47850;50.274;18.908;2023-05-03T01:16:55;98720.03;;;10.02;89.29
61898;BME280;47850;50.274;18.908;2023-05-03T01:19:28;98721.66;;;10.03;89.42
61898;BME280;47850;50.274;18.908;2023-05-03T01:22:13;98721.00;;;10.03;89.41
61898;BME280;47850;50.274;18.908;2023-05-03T01:24:44;98724.70;;;10.04;89.56
61898;BME280;47850;50.274;18.908;2023-05-03T01:27:13;98724.13;;;10.05;89.35
61898;BME280;47850;50.274;18.908;2023-05-03T01:29:41;98727.61;;;10.04;89.16
61898;BME280;47850;50.274;18.908;2023-05-03T01:32:14;98727.22;;;10.06;89.27
61898;BME280;47850;50.274;18.908;2023-05-03T01:34:53;98730.13;;;10.08;89.47
61898;BME280;47850;50.274;18.908;2023-05-03T01:37:21;98728.79;;;10.10;89.42
61898;BME280;47850;50.274;18.908;2023-05-03T01:39:50;98730.77;;;10.14;89.77
61898;BME280;47850;50.274;18.908;2023-05-03T01:42:20;98728.08;;;10.15;89.68
61898;BME280;47850;50.274;18.908;2023-05-03T01:44:50;98730.12;;;10.17;89.67
61898;BME280;47850;50.274;18.908;2023-05-03T01:47:19;98730.98;;;10.20;89.75
61898;BME280;47850;50.274;18.908;2023-05-03T01:49:47;98732.27;;;10.24;89.73
61898;BME280;47850;50.274;18.908;2023-05-03T01:52:14;98730.44;;;10.26;89.42
61898;BME280;47850;50.274;18.908;2023-05-03T01:54:42;98733.84;;;10.27;89.12
61898;BME280;47850;50.274;18.908;2023-05-03T01:57:10;98734.73;;;10.26;88.95
61898;BME280;47850;50.274;18.908;2023-05-03T01:59:38;98736.54;;;10.29;89.30
61898;BME280;47850;50.274;18.908;2023-05-03T02:02:05;98738.45;;;10.31;89.54
61898;BME280;47850;50.274;18.908;2023-05-03T02:04:33;98738.09;;;10.33;89.51
61898;BME280;47850;50.274;18.908;2023-05-03T02:07:01;98734.40;;;10.34;89.42
61898;BME280;47850;50.274;18.908;2023-05-03T02:09:29;98732.73;;;10.33;89.48
61898;BME280;47850;50.274;18.908;2023-05-03T02:11:56;98733.48;;;10.33;89.43
61898;BME280;47850;50.274;18.908;2023-05-03T02:14:24;98734.35;;;10.31;89.30
61898;BME280;47850;50.274;18.908;2023-05-03T02:16:52;98729.55;;;10.29;89.35
61898;BME280;47850;50.274;18.908;2023-05-03T02:19:22;98735.23;;;10.29;89.54
61898;BME280;47850;50.274;18.908;2023-05-03T02:21:49;98734.58;;;10.29;89.81
61898;BME280;47850;50.274;18.908;2023-05-03T02:24:17;98732.44;;;10.29;90.10
61898;BME280;47850;50.274;18.908;2023-05-03T02:26:46;98734.71;;;10.30;90.20
61898;BME280;47850;50.274;18.908;2023-05-03T02:29:13;98734.80;;;10.30;90.15
61898;BME280;47850;50.274;18.908;2023-05-03T02:31:41;98735.64;;;10.30;89.97
61898;BME280;47850;50.274;18.908;2023-05-03T02:34:09;98737.02;;;10.29;89.95
61898;BME280;47850;50.274;18.908;2023-05-03T02:36:37;98738.08;;;10.30;90.44
61898;BME280;47850;50.274;18.908;2023-05-03T02:39:05;98737.73;;;10.31;90.51
61898;BME280;47850;50.274;18.908;2023-05-03T02:41:33;98740.33;;;10.32;90.35
61898;BME280;47850;50.274;18.908;2023-05-03T02:44:01;98742.63;;;10.35;90.26
61898;BME280;47850;50.274;18.908;2023-05-03T02:46:29;98740.88;;;10.35;90.17
61898;BME280;47850;50.274;18.908;2023-05-03T02:48:57;98744.46;;;10.35;90.15
61898;BME280;47850;50.274;18.908;2023-05-03T02:51:25;98746.80;;;10.36;90.04
61898;BME280;47850;50.274;18.908;2023-05-03T02:53:53;98745.21;;;10.37;90.03
61898;BME280;47850;50.274;18.908;2023-05-03T02:56:20;98745.65;;;10.38;89.86
61898;BME280;47850;50.274;18.908;2023-05-03T02:58:48;98747.55;;;10.38;89.80
61898;BME280;47850;50.274;18.908;2023-05-03T03:01:16;98750.98;;;10.39;89.72
61898;BME280;47850;50.274;18.908;2023-05-03T03:03:43;98752.91;;;10.40;89.66
61898;BME280;47850;50.274;18.908;2023-05-03T03:06:11;98752.65;;;10.40;89.42
61898;BME280;47850;50.274;18.908;2023-05-03T03:08:39;98757.39;;;10.39;89.55
61898;BME280;47850;50.274;18.908;2023-05-03T03:11:07;98757.95;;;10.39;89.53
61898;BME280;47850;50.274;18.908;2023-05-03T03:13:34;98757.88;;;10.40;89.58
61898;BME280;47850;50.274;18.908;2023-05-03T03:16:06;98755.98;;;10.39;89.51
61898;BME280;47850;50.274;18.908;2023-05-03T03:18:34;98760.74;;;10.38;89.50
61898;BME280;47850;50.274;18.908;2023-05-03T03:21:02;98760.83;;;10.35;89.34
61898;BME280;47850;50.274;18.908;2023-05-03T03:23:30;98759.90;;;10.33;89.37
61898;BME280;47850;50.274;18.908;2023-05-03T03:25:57;98762.91;;;10.32;89.44
61898;BME280;47850;50.274;18.908;2023-05-03T03:28:25;98761.95;;;10.31;89.35
61898;BME280;47850;50.274;18.908;2023-05-03T03:30:52;98761.73;;;10.29;89.27
61898;BME280;47850;50.274;18.908;2023-05-03T03:33:20;98760.11;;;10.28;89.14
61898;BME280;47850;50.274;18.908;2023-05-03T03:35:48;98757.55;;;10.27;89.27
61898;BME280;47850;50.274;18.908;2023-05-03T03:38:16;98759.36;;;10.25;89.05
61898;BME280;47850;50.274;18.908;2023-05-03T03:40:44;98761.63;;;10.22;88.96
61898;BME280;47850;50.274;18.908;2023-05-03T03:43:11;98760.98;;;10.19;88.93
61898;BME280;47850;50.274;18.908;2023-05-03T03:45:39;98762.40;;;10.16;88.77
61898;BME280;47850;50.274;18.908;2023-05-03T03:48:07;98763.58;;;10.14;88.94
61898;BME280;47850;50.274;18.908;2023-05-03T03:50:35;98765.45;;;10.11;88.97
61898;BME280;47850;50.274;18.908;2023-05-03T03:53:03;98768.45;;;10.10;88.92
61898;BME280;47850;50.274;18.908;2023-05-03T03:55:31;98770.55;;;10.09;89.12
61898;BME280;47850;50.274;18.908;2023-05-03T03:57:58;98772.06;;;10.09;89.26
61898;BME280;47850;50.274;18.908;2023-05-03T04:00:26;98775.91;;;10.08;89.28
61898;BME280;47850;50.274;18.908;2023-05-03T04:02:54;98779.92;;;10.09;89.20
61898;BME280;47850;50.274;18.908;2023-05-03T04:05:22;98780.24;;;10.09;89.02
61898;BME280;47850;50.274;18.908;2023-05-03T04:07:50;98782.75;;;10.09;89.08
61898;BME280;47850;50.274;18.908;2023-05-03T04:10:18;98785.64;;;10.09;88.93
61898;BME280;47850;50.274;18.908;2023-05-03T04:12:45;98785.98;;;10.08;88.89
61898;BME280;47850;50.274;18.908;2023-05-03T04:15:13;98788.10;;;10.09;88.87
61898;BME280;47850;50.274;18.908;2023-05-03T04:17:40;98788.56;;;10.10;88.89
61898;BME280;47850;50.274;18.908;2023-05-03T04:20:08;98793.65;;;10.12;88.93
61898;BME280;47850;50.274;18.908;2023-05-03T04:22:40;98798.86;;;10.14;88.82
61898;BME280;47850;50.274;18.908;2023-05-03T04:25:09;98807.39;;;10.15;88.66
61898;BME280;47850;50.274;18.908;2023-05-03T04:27:38;98809.88;;;10.16;88.59
61898;BME280;47850;50.274;18.908;2023-05-03T04:30:06;98810.08;;;10.17;88.31
61898;BME280;47850;50.274;18.908;2023-05-03T04:32:34;98808.89;;;10.16;87.95
61898;BME280;47850;50.274;18.908;2023-05-03T04:35:07;98813.06;;;10.17;87.86
61898;BME280;47850;50.274;18.908;2023-05-03T04:37:37;98816.55;;;10.17;87.47
61898;BME280;47850;50.274;18.908;2023-05-03T04:40:05;98820.92;;;10.20;87.20
61898;BME280;47850;50.274;18.908;2023-05-03T04:42:35;98824.23;;;10.22;86.69
61898;BME280;47850;50.274;18.908;2023-05-03T04:45:03;98827.79;;;10.20;86.06
61898;BME280;47850;50.274;18.908;2023-05-03T04:47:33;98827.44;;;10.18;85.63
61898;BME280;47850;50.274;18.908;2023-05-03T04:50:01;98831.61;;;10.20;85.65
61898;BME280;47850;50.274;18.908;2023-05-03T04:52:28;98836.64;;;10.22;85.40
61898;BME280;47850;50.274;18.908;2023-05-03T04:54:56;98840.03;;;10.25;85.13
61898;BME280;47850;50.274;18.908;2023-05-03T04:57:24;98844.10;;;10.28;84.74
61898;BME280;47850;50.274;18.908;2023-05-03T04:59:52;98848.71;;;10.27;83.92
61898;BME280;47850;50.274;18.908;2023-05-03T05:02:22;98849.08;;;10.28;83.42
61898;BME280;47850;50.274;18.908;2023-05-03T05:04:50;98849.42;;;10.27;83.01
61898;BME280;47850;50.274;18.908;2023-05-03T05:07:18;98851.81;;;10.25;82.45
61898;BME280;47850;50.274;18.908;2023-05-03T05:09:45;98854.20;;;10.25;82.00
61898;BME280;47850;50.274;18.908;2023-05-03T05:12:13;98858.32;;;10.26;81.81
61898;BME280;47850;50.274;18.908;2023-05-03T05:14:41;98860.18;;;10.26;81.26
61898;BME280;47850;50.274;18.908;2023-05-03T05:17:08;98863.86;;;10.27;81.34
61898;BME280;47850;50.274;18.908;2023-05-03T05:19:36;98862.02;;;10.30;81.69
61898;BME280;47850;50.274;18.908;2023-05-03T05:22:04;98864.86;;;10.32;81.72
61898;BME280;47850;50.274;18.908;2023-05-03T05:24:32;98865.16;;;10.33;81.55
61898;BME280;47850;50.274;18.908;2023-05-03T05:26:59;98867.80;;;10.32;81.30
61898;BME280;47850;50.274;18.908;2023-05-03T05:29:28;98869.17;;;10.32;81.16
61898;BME280;47850;50.274;18.908;2023-05-03T05:31:55;98875.17;;;10.32;81.15
61898;BME280;47850;50.274;18.908;2023-05-03T05:34:23;98877.25;;;10.31;81.23
61898;BME280;47850;50.274;18.908;2023-05-03T05:36:51;98880.15;;;10.28;80.66
61898;BME280;47850;50.274;18.908;2023-05-03T05:39:19;98888.73;;;10.26;80.77
61898;BME280;47850;50.274;18.908;2023-05-03T05:41:48;98885.94;;;10.24;80.44
61898;BME280;47850;50.274;18.908;2023-05-03T05:44:16;98891.80;;;10.23;80.35
61898;BME280;47850;50.274;18.908;2023-05-03T05:46:43;98894.39;;;10.21;80.28
61898;BME280;47850;50.274;18.908;2023-05-03T05:49:11;98895.10;;;10.21;80.08
61898;BME280;47850;50.274;18.908;2023-05-03T05:51:39;98898.23;;;10.20;79.91
61898;BME280;47850;50.274;18.908;2023-05-03T05:54:07;98893.69;;;10.14;79.57
61898;BME280;47850;50.274;18.908;2023-05-03T05:56:35;98895.21;;;10.11;79.66
61898;BME280;47850;50.274;18.908;2023-05-03T05:59:03;98895.80;;;10.12;79.78
61898;BME280;47850;50.274;18.908;2023-05-03T06:01:32;98899.19;;;10.11;79.50
61898;BME280;47850;50.274;18.908;2023-05-03T06:04:00;98901.29;;;10.12;79.52
61898;BME280;47850;50.274;18.908;2023-05-03T06:06:28;98902.15;;;10.14;79.37
61898;BME280;47850;50.274;18.908;2023-05-03T06:08:56;98904.81;;;10.14;79.33
61898;BME280;47850;50.274;18.908;2023-05-03T06:11:24;98905.61;;;10.15;79.34
61898;BME280;47850;50.274;18.908;2023-05-03T06:13:51;98909.09;;;10.19;79.04
61898;BME280;47850;50.274;18.908;2023-05-03T06:16:19;98911.73;;;10.21;78.65
61898;BME280;47850;50.274;18.908;2023-05-03T06:18:47;98911.66;;;10.24;78.60
61898;BME280;47850;50.274;18.908;2023-05-03T06:21:14;98915.77;;;10.30;78.61
61898;BME280;47850;50.274;18.908;2023-05-03T06:23:42;98916.55;;;10.36;78.44
61898;BME280;47850;50.274;18.908;2023-05-03T06:26:10;98913.71;;;10.40;77.97
61898;BME280;47850;50.274;18.908;2023-05-03T06:28:38;98919.31;;;10.44;77.66
61898;BME280;47850;50.274;18.908;2023-05-03T06:31:06;98919.84;;;10.49;77.45
61898;BME280;47850;50.274;18.908;2023-05-03T06:33:33;98922.98;;;10.56;77.09
61898;BME280;47850;50.274;18.908;2023-05-03T06:36:01;98925.27;;;10.65;76.75
61898;BME280;47850;50.274;18.908;2023-05-03T06:38:28;98928.58;;;10.72;76.07
61898;BME280;47850;50.274;18.908;2023-05-03T06:40:56;98934.45;;;10.80;75.68
61898;BME280;47850;50.274;18.908;2023-05-03T06:43:24;98935.73;;;10.89;75.12
61898;BME280;47850;50.274;18.908;2023-05-03T06:45:52;98934.17;;;11.00;75.04
61898;BME280;47850;50.274;18.908;2023-05-03T06:48:20;98938.02;;;11.15;74.69
61898;BME280;47850;50.274;18.908;2023-05-03T06:50:48;98935.33;;;11.29;74.16
61898;BME280;47850;50.274;18.908;2023-05-03T06:53:15;98938.63;;;11.41;73.74
61898;BME280;47850;50.274;18.908;2023-05-03T06:55:43;98942.51;;;11.51;72.86
61898;BME280;47850;50.274;18.908;2023-05-03T06:58:12;98947.41;;;11.61;71.81
61898;BME280;47850;50.274;18.908;2023-05-03T07:00:40;98947.83;;;11.73;71.41
61898;BME280;47850;50.274;18.908;2023-05-03T07:03:08;98945.98;;;11.79;70.29
61898;BME280;47850;50.274;18.908;2023-05-03T07:05:35;98948.50;;;11.84;70.05
61898;BME280;47850;50.274;18.908;2023-05-03T07:08:03;98946.83;;;11.87;69.72
61898;BME280;47850;50.274;18.908;2023-05-03T07:10:31;98948.33;;;11.94;69.77
61898;BME280;47850;50.274;18.908;2023-05-03T07:12:58;98951.02;;;12.03;69.39
61898;BME280;47850;50.274;18.908;2023-05-03T07:15:26;98949.41;;;12.14;69.27
61898;BME280;47850;50.274;18.908;2023-05-03T07:17:54;98948.92;;;12.27;69.05
61898;BME280;47850;50.274;18.908;2023-05-03T07:20:22;98949.86;;;12.41;68.99
61898;BME280;47850;50.274;18.908;2023-05-03T07:22:49;98954.23;;;12.52;67.38
61898;BME280;47850;50.274;18.908;2023-05-03T07:25:17;98955.55;;;12.59;66.67
61898;BME280;47850;50.274;18.908;2023-05-03T07:27:45;98960.06;;;12.65;64.53
61898;BME280;47850;50.274;18.908;2023-05-03T07:30:13;98960.88;;;12.63;64.02
61898;BME280;47850;50.274;18.908;2023-05-03T07:32:41;98966.80;;;12.62;63.90
61898;BME280;47850;50.274;18.908;2023-05-03T07:35:08;98959.52;;;12.65;63.29
61898;BME280;47850;50.274;18.908;2023-05-03T07:37:36;98963.14;;;12.70;63.39
61898;BME280;47850;50.274;18.908;2023-05-03T07:40:05;98962.39;;;12.81;63.75
61898;BME280;47850;50.274;18.908;2023-05-03T07:42:33;98967.30;;;12.91;62.68
61898;BME280;47850;50.274;18.908;2023-05-03T07:45:01;98970.48;;;12.94;61.62
61898;BME280;47850;50.274;18.908;2023-05-03T07:47:28;98965.48;;;12.96;61.69
61898;BME280;47850;50.274;18.908;2023-05-03T07:49:56;98964.80;;;13.01;62.04
61898;BME280;47850;50.274;18.908;2023-05-03T07:52:24;98963.83;;;13.09;61.54
61898;BME280;47850;50.274;18.908;2023-05-03T07:54:52;98964.31;;;13.13;60.89
61898;BME280;47850;50.274;18.908;2023-05-03T07:57:19;98962.09;;;13.08;60.89
61898;BME280;47850;50.274;18.908;2023-05-03T07:59:49;98966.74;;;13.08;61.04
61898;BME280;47850;50.274;18.908;2023-05-03T08:02:17;98965.64;;;13.08;61.23
61898;BME280;47850;50.274;18.908;2023-05-03T08:04:45;98968.94;;;13.12;61.49
61898;BME280;47850;50.274;18.908;2023-05-03T08:07:13;98969.09;;;13.12;60.98
61898;BME280;47850;50.274;18.908;2023-05-03T08:09:40;98967.41;;;13.12;60.86
61898;BME280;47850;50.274;18.908;2023-05-03T08:12:08;98966.23;;;13.11;61.15
61898;BME280;47850;50.274;18.908;2023-05-03T08:14:36;98972.45;;;13.07;61.01
61898;BME280;47850;50.274;18.908;2023-05-03T08:17:04;98973.20;;;13.06;61.46
61898;BME280;47850;50.274;18.908;2023-05-03T08:19:31;98968.28;;;13.10;62.04
61898;BME280;47850;50.274;18.908;2023-05-03T08:21:59;98973.34;;;13.11;61.58
61898;BME280;47850;50.274;18.908;2023-05-03T08:24:27;98973.02;;;13.13;61.87
61898;BME280;47850;50.274;18.908;2023-05-03T08:26:55;98968.75;;;13.17;61.88
61898;BME280;47850;50.274;18.908;2023-05-03T08:29:22;98972.30;;;13.17;61.78
61898;BME280;47850;50.274;18.908;2023-05-03T08:31:50;98973.27;;;13.19;61.64
61898;BME280;47850;50.274;18.908;2023-05-03T08:34:18;98973.93;;;13.27;61.43
61898;BME280;47850;50.274;18.908;2023-05-03T08:36:45;98974.24;;;13.32;61.50
61898;BME280;47850;50.274;18.908;2023-05-03T08:39:13;98976.50;;;13.39;61.55
61898;BME280;47850;50.274;18.908;2023-05-03T08:41:41;98977.73;;;13.50;61.59
61898;BME280;47850;50.274;18.908;2023-05-03T08:44:10;98981.73;;;13.60;60.93
61898;BME280;47850;50.274;18.908;2023-05-03T08:46:38;98987.38;;;13.64;60.55
61898;BME280;47850;50.274;18.908;2023-05-03T08:49:06;98991.35;;;13.67;59.50
61898;BME280;47850;50.274;18.908;2023-05-03T08:51:33;98995.83;;;13.64;57.94
61898;BME280;47850;50.274;18.908;2023-05-03T08:54:03;99000.14;;;13.59;57.85
61898;BME280;47850;50.274;18.908;2023-05-03T08:56:41;99002.32;;;13.59;58.32
61898;BME280;47850;50.274;18.908;2023-05-03T08:59:09;99006.92;;;13.57;58.26
61898;BME280;47850;50.274;18.908;2023-05-03T09:01:38;99007.41;;;13.53;58.64
61898;BME280;47850;50.274;18.908;2023-05-03T09:04:07;99008.14;;;13.54;58.83
61898;BME280;47850;50.274;18.908;2023-05-03T09:06:35;99008.44;;;13.54;58.51
61898;BME280;47850;50.274;18.908;2023-05-03T09:09:03;99011.83;;;13.56;59.00
61898;BME280;47850;50.274;18.908;2023-05-03T09:11:34;99011.61;;;13.58;58.87
61898;BME280;47850;50.274;18.908;2023-05-03T09:14:10;99012.36;;;13.61;58.93
61898;BME280;47850;50.274;18.908;2023-05-03T09:16:38;99013.48;;;13.63;58.44
61898;BME280;47850;50.274;18.908;2023-05-03T09:19:07;99017.63;;;13.63;58.27
61898;BME280;47850;50.274;18.908;2023-05-03T09:21:39;99013.56;;;13.66;58.31
61898;BME280;47850;50.274;18.908;2023-05-03T09:24:14;99013.95;;;13.68;58.72
61898;BME280;47850;50.274;18.908;2023-05-03T09:26:42;99013.54;;;13.71;59.04
61898;BME280;47850;50.274;18.908;2023-05-03T09:29:25;99014.56;;;13.66;58.75
61898;BME280;47850;50.274;18.908;2023-05-03T09:31:57;99020.10;;;13.62;59.21
61898;BME280;47850;50.274;18.908;2023-05-03T09:34:25;99021.25;;;13.60;59.43
61898;BME280;47850;50.274;18.908;2023-05-03T09:36:53;99019.54;;;13.59;59.84
61898;BME280;47850;50.274;18.908;2023-05-03T09:39:21;99024.27;;;13.64;59.72
61898;BME280;47850;50.274;18.908;2023-05-03T09:41:49;99023.26;;;13.74;59.10
61898;BME280;47850;50.274;18.908;2023-05-03T09:44:17;99020.88;;;13.82;58.73
61898;BME280;47850;50.274;18.908;2023-05-03T09:47:03;99018.15;;;13.89;59.18
61898;BME280;47850;50.274;18.908;2023-05-03T09:49:31;99016.86;;;14.03;59.70
61898;BME280;47850;50.274;18.908;2023-05-03T09:52:08;99019.72;;;14.12;59.27
61898;BME280;47850;50.274;18.908;2023-05-03T09:54:36;99019.52;;;14.14;59.05
61898;BME280;47850;50.274;18.908;2023-05-03T09:57:04;99018.33;;;14.15;59.17
61898;BME280;47850;50.274;18.908;2023-05-03T09:59:33;99022.63;;;14.22;59.51
61898;BME280;47850;50.274;18.908;2023-05-03T10:02:02;99024.52;;;14.31;59.56
61898;BME280;47850;50.274;18.908;2023-05-03T10:04:40;99020.39;;;14.35;59.24
61898;BME280;47850;50.274;18.908;2023-05-03T10:07:13;99015.28;;;14.42;58.18
61898;BME280;47850;50.274;18.908;2023-05-03T10:09:43;99015.45;;;14.46;57.48
61898;BME280;47850;50.274;18.908;2023-05-03T10:12:12;99020.45;;;14.42;56.35
61898;BME280;47850;50.274;18.908;2023-05-03T10:14:40;99017.01;;;14.28;56.82
61898;BME280;47850;50.274;18.908;2023-05-03T10:17:20;99013.66;;;14.20;57.38
61898;BME280;47850;50.274;18.908;2023-05-03T10:19:59;99014.65;;;14.17;57.39
61898;BME280;47850;50.274;18.908;2023-05-03T10:22:33;99013.19;;;14.15;57.14
61898;BME280;47850;50.274;18.908;2023-05-03T10:25:21;99012.79;;;14.11;57.56
61898;BME280;47850;50.274;18.908;2023-05-03T10:27:51;99008.36;;;14.05;57.52
61898;BME280;47850;50.274;18.908;2023-05-03T10:30:26;99009.64;;;13.93;57.70
61898;BME280;47850;50.274;18.908;2023-05-03T10:32:55;99010.20;;;13.78;57.92
61898;BME280;47850;50.274;18.908;2023-05-03T10:35:26;99013.48;;;13.63;58.04
61898;BME280;47850;50.274;18.908;2023-05-03T10:37:55;99014.13;;;13.50;58.30
61898;BME280;47850;50.274;18.908;2023-05-03T10:40:23;99014.95;;;13.43;58.54
61898;BME280;47850;50.274;18.908;2023-05-03T10:43:12;99013.72;;;13.40;58.91
61898;BME280;47850;50.274;18.908;2023-05-03T10:45:55;99012.50;;;13.33;58.55
61898;BME280;47850;50.274;18.908;2023-05-03T10:48:23;99016.86;;;13.30;59.12
61898;BME280;47850;50.274;18.908;2023-05-03T10:50:51;99015.04;;;13.32;58.99
61898;BME280;47850;50.274;18.908;2023-05-03T10:53:35;99013.12;;;13.37;58.80
61898;BME280;47850;50.274;18.908;2023-05-03T10:56:04;99014.23;;;13.51;59.08
61898;BME280;47850;50.274;18.908;2023-05-03T10:58:39;99016.45;;;13.61;58.81
61898;BME280;47850;50.274;18.908;2023-05-03T11:01:09;99012.67;;;13.76;58.03
61898;BME280;47850;50.274;18.908;2023-05-03T11:06:07;99019.77;;;14.01;55.73
61898;BME280;47850;50.274;18.908;2023-05-03T11:08:34;99012.86;;;14.11;55.39
61898;BME280;47850;50.274;18.908;2023-05-03T11:11:05;99012.20;;;14.26;55.32
61898;BME280;47850;50.274;18.908;2023-05-03T11:13:36;99011.92;;;14.43;54.87
61898;BME280;47850;50.274;18.908;2023-05-03T11:16:03;99012.48;;;14.60;54.33
61898;BME280;47850;50.274;18.908;2023-05-03T11:18:32;99011.81;;;14.74;54.27
61898;BME280;47850;50.274;18.908;2023-05-03T11:21:00;99013.97;;;14.88;53.95
61898;BME280;47850;50.274;18.908;2023-05-03T11:23:28;99011.33;;;14.96;53.47
61898;BME280;47850;50.274;18.908;2023-05-03T11:25:56;99014.14;;;14.97;53.66
61898;BME280;47850;50.274;18.908;2023-05-03T11:28:26;99009.70;;;15.02;53.93
61898;BME280;47850;50.274;18.908;2023-05-03T11:30:54;99009.52;;;15.09;53.47
61898;BME280;47850;50.274;18.908;2023-05-03T11:33:23;99012.14;;;15.16;53.70
61898;BME280;47850;50.274;18.908;2023-05-03T11:35:54;99012.51;;;15.19;53.31
61898;BME280;47850;50.274;18.908;2023-05-03T11:38:21;99012.91;;;15.08;52.40
61898;BME280;47850;50.274;18.908;2023-05-03T11:40:49;99013.66;;;14.94;52.72
61898;BME280;47850;50.274;18.908;2023-05-03T11:43:18;99012.06;;;14.78;52.46
61898;BME280;47850;50.274;18.908;2023-05-03T11:45:46;99013.66;;;14.70;53.25
61898;BME280;47850;50.274;18.908;2023-05-03T11:48:14;99009.31;;;14.72;54.05
61898;BME280;47850;50.274;18.908;2023-05-03T11:50:46;99006.98;;;14.78;53.43
61898;BME280;47850;50.274;18.908;2023-05-03T11:53:14;99009.85;;;14.91;52.81
61898;BME280;47850;50.274;18.908;2023-05-03T11:55:46;99008.67;;;14.98;52.44
61898;BME280;47850;50.274;18.908;2023-05-03T11:58:15;99010.38;;;15.01;52.35
61898;BME280;47850;50.274;18.908;2023-05-03T12:00:47;99011.50;;;15.04;51.96
61898;BME280;47850;50.274;18.908;2023-05-03T12:03:19;99009.02;;;15.01;51.67
61898;BME280;47850;50.274;18.908;2023-05-03T12:05:48;99011.02;;;14.94;51.88
61898;BME280;47850;50.274;18.908;2023-05-03T12:08:16;99005.10;;;14.88;52.42
61898;BME280;47850;50.274;18.908;2023-05-03T12:10:45;99008.52;;;14.87;52.29
61898;BME280;47850;50.274;18.908;2023-05-03T12:13:13;99003.39;;;14.82;52.52
61898;BME280;47850;50.274;18.908;2023-05-03T12:15:40;99005.60;;;14.81;52.80
61898;BME280;47850;50.274;18.908;2023-05-03T12:18:12;99007.98;;;14.80;52.46
61898;BME280;47850;50.274;18.908;2023-05-03T12:20:40;99007.91;;;14.80;52.42
61898;BME280;47850;50.274;18.908;2023-05-03T12:23:08;99005.67;;;14.80;52.72
61898;BME280;47850;50.274;18.908;2023-05-03T12:25:36;99000.59;;;14.81;52.60
61898;BME280;47850;50.274;18.908;2023-05-03T12:28:04;99001.21;;;14.77;53.26
61898;BME280;47850;50.274;18.908;2023-05-03T12:30:33;99002.84;;;14.66;53.42
61898;BME280;47850;50.274;18.908;2023-05-03T12:33:01;98997.34;;;14.57;53.69
61898;BME280;47850;50.274;18.908;2023-05-03T12:35:29;98997.05;;;14.48;53.86
61898;BME280;47850;50.274;18.908;2023-05-03T12:37:56;98998.69;;;14.43;53.62
61898;BME280;47850;50.274;18.908;2023-05-03T12:40:24;98997.18;;;14.48;53.73
61898;BME280;47850;50.274;18.908;2023-05-03T12:42:54;98993.76;;;14.60;53.65
61898;BME280;47850;50.274;18.908;2023-05-03T12:45:26;98989.56;;;14.76;52.70
61898;BME280;47850;50.274;18.908;2023-05-03T12:47:54;98988.23;;;15.02;52.42
61898;BME280;47850;50.274;18.908;2023-05-03T12:50:21;98983.65;;;15.39;51.87
61898;BME280;47850;50.274;18.908;2023-05-03T12:52:49;98987.83;;;15.76;51.27
61898;BME280;47850;50.274;18.908;2023-05-03T12:55:17;98983.03;;;16.07;50.18
61898;BME280;47850;50.274;18.908;2023-05-03T12:57:44;98987.23;;;16.38;49.34
61898;BME280;47850;50.274;18.908;2023-05-03T13:00:12;98984.66;;;16.73;47.54
61898;BME280;47850;50.274;18.908;2023-05-03T13:02:40;98988.09;;;16.95;46.11
61898;BME280;47850;50.274;18.908;2023-05-03T13:05:08;98991.40;;;16.97;45.56
61898;BME280;47850;50.274;18.908;2023-05-03T13:07:36;98988.13;;;16.98;45.63
61898;BME280;47850;50.274;18.908;2023-05-03T13:10:04;98985.17;;;17.04;45.67